Terminal Aerodrome Forecast
Issued by NWS

Home | Current Version | Previous Version | Text Only | Print | Product List | Glossary On
Versions: 1 2 3 4 5 6 7 8 9 10 11 12 13
700
FTUS44 KBMX 230520
TAFEET
TAF
KEET 230520Z 2306/2406 05003KT P6SM SKC
     FM231400 13009G18KT P6SM BKN040
     FM240000 13006KT P6SM BKN050=

USA.gov is the U.S. government's official web portal to all federal, state and local government web resources and services.